Time;durP1;ratioP1;P1;durP2;ratioP2;P2;SDS_P1;SDS_P2;PMS_P1;PMS_P2;Temp;Humidity;BMP_temperature;BMP_pressure;BME280_temperature;BME280_humidity;BME280_pressure;Samples;Min_cycle;Max_cycle;Signal;HPM_P1;HPM_P2
2023/12/12 00:01:21;;;;;;;0.60;0.47;;;;;;;8.25;100.00;94933.72;4369751;32;20207;-60
2023/12/12 00:03:48;;;;;;;0.20;0.20;;;;;;;8.30;100.00;94940.81;4353757;32;20338;-59
2023/12/12 00:06:18;;;;;;;0.20;0.20;;;;;;;8.34;100.00;94949.72;4354520;32;20207;-60
2023/12/12 00:08:46;;;;;;;0.20;0.20;;;;;;;8.35;100.00;94946.81;4356818;32;20292;-60
2023/12/12 00:11:13;;;;;;;0.53;0.27;;;;;;;8.41;100.00;94945.66;4347884;32;20316;-59
2023/12/12 00:13:40;;;;;;;0.20;0.20;;;;;;;8.20;100.00;94945.16;4369912;32;20259;-60
2023/12/12 00:16:07;;;;;;;0.23;0.23;;;;;;;8.23;100.00;94949.09;4366178;32;20345;-59
2023/12/12 00:18:34;;;;;;;0.10;0.10;;;;;;;8.33;100.00;94951.59;4368174;32;20310;-59
2023/12/12 00:21:00;;;;;;;0.10;0.10;;;;;;;8.25;100.00;94960.94;4317246;32;20201;-60
2023/12/12 00:23:27;;;;;;;0.30;0.30;;;;;;;8.30;100.00;94956.66;4313775;32;20278;-60
2023/12/12 00:25:52;;;;;;;0.43;0.43;;;;;;;8.18;100.00;94954.44;4298043;32;20240;-59
2023/12/12 00:28:19;;;;;;;0.40;0.40;;;;;;;8.06;100.00;94954.87;4328008;32;20226;-60
2023/12/12 00:30:44;;;;;;;3.70;0.40;;;;;;;8.09;100.00;94948.25;4350650;32;20250;-60
2023/12/12 00:33:09;;;;;;;0.10;0.10;;;;;;;8.10;100.00;94957.75;4307723;32;20285;-59
2023/12/12 00:35:37;;;;;;;0.10;0.10;;;;;;;8.03;100.00;94965.22;4329884;32;20219;-60
2023/12/12 00:38:04;;;;;;;0.20;0.20;;;;;;;8.05;100.00;94963.09;4355273;32;20192;-60
2023/12/12 00:40:32;;;;;;;0.00;0.00;;;;;;;8.05;100.00;94963.87;4370053;32;20299;-59
2023/12/12 00:42:57;;;;;;;0.00;0.00;;;;;;;7.95;100.00;94964.00;4361263;32;20391;-60
2023/12/12 00:45:22;;;;;;;0.23;0.23;;;;;;;7.97;100.00;94961.88;4362066;32;20351;-60
2023/12/12 00:47:48;;;;;;;2.23;0.50;;;;;;;8.02;100.00;94963.66;4342326;32;20178;-60
2023/12/12 00:50:14;;;;;;;1.27;0.50;;;;;;;8.07;100.00;94955.66;4368734;32;20225;-59
2023/12/12 00:52:40;;;;;;;0.23;0.23;;;;;;;7.96;100.00;94943.66;4334161;32;20248;-59
2023/12/12 00:55:05;;;;;;;0.20;0.20;;;;;;;7.99;100.00;94948.37;4306305;32;20315;-59
2023/12/12 00:57:32;;;;;;;0.00;0.00;;;;;;;8.07;100.00;94959.09;4349673;32;20215;-59
2023/12/12 01:00:03;;;;;;;0.10;0.10;;;;;;;7.92;100.00;94954.00;4363988;32;20240;-59
2023/12/12 01:02:30;;;;;;;0.43;0.37;;;;;;;7.86;100.00;94944.59;4337992;32;20312;-60
2023/12/12 01:04:57;;;;;;;0.30;0.30;;;;;;;7.92;100.00;94954.00;4309926;32;20344;-60
2023/12/12 01:07:23;;;;;;;0.30;0.30;;;;;;;7.84;100.00;94946.75;4331565;32;20293;-59
2023/12/12 01:09:49;;;;;;;0.93;0.33;;;;;;;7.90;100.00;94954.28;4313570;32;20294;-60
2023/12/12 01:12:18;;;;;;;0.00;0.00;;;;;;;7.89;100.00;94941.41;4350149;32;20289;-62
2023/12/12 01:14:44;;;;;;;0.30;0.30;;;;;;;7.92;100.00;94943.44;4342514;32;20211;-59
2023/12/12 01:17:09;;;;;;;0.20;0.20;;;;;;;7.93;100.00;94942.38;4360639;32;20288;-59
2023/12/12 01:19:35;;;;;;;0.53;0.53;;;;;;;7.92;100.00;94951.38;4362860;32;20412;-59
2023/12/12 01:22:01;;;;;;;0.10;0.10;;;;;;;7.98;100.00;94957.38;4341070;32;20205;-61
2023/12/12 01:24:27;;;;;;;5.10;0.40;;;;;;;7.95;100.00;94950.81;4366662;32;20227;-60
2023/12/12 01:26:53;;;;;;;0.30;0.30;;;;;;;7.93;100.00;94951.09;4364062;32;20297;-59
2023/12/12 01:29:20;;;;;;;0.30;0.30;;;;;;;7.93;100.00;94952.94;4353812;32;20196;-59
2023/12/12 01:31:48;;;;;;;0.23;0.23;;;;;;;7.88;100.00;94951.19;4329378;32;20351;-59
2023/12/12 01:34:14;;;;;;;1.60;0.30;;;;;;;7.92;100.00;94957.44;4348953;32;20293;-59
2023/12/12 01:36:41;;;;;;;0.20;0.17;;;;;;;7.77;100.00;94956.84;4341077;32;20292;-59
2023/12/12 01:39:06;;;;;;;0.20;0.10;;;;;;;7.76;100.00;94961.34;4345520;32;20307;-59
2023/12/12 01:41:32;;;;;;;0.20;0.20;;;;;;;7.75;100.00;94972.19;4370488;32;20292;-59
2023/12/12 01:43:57;;;;;;;0.10;0.10;;;;;;;7.69;100.00;94968.81;4346326;32;20294;-59
2023/12/12 01:46:25;;;;;;;0.47;0.37;;;;;;;7.71;100.00;94961.41;4355374;32;20219;-59
2023/12/12 01:48:51;;;;;;;0.27;0.27;;;;;;;7.74;100.00;94957.41;4357759;32;20234;-59
2023/12/12 01:51:16;;;;;;;0.10;0.10;;;;;;;7.75;100.00;94948.44;4361130;32;20316;-59
2023/12/12 01:53:46;;;;;;;0.53;0.20;;;;;;;7.74;100.00;94939.72;4359444;32;20347;-59
2023/12/12 01:56:14;;;;;;;0.20;0.20;;;;;;;7.82;100.00;94951.53;4334220;32;20201;-59
2023/12/12 01:58:43;;;;;;;0.20;0.13;;;;;;;7.62;100.00;94964.97;4326239;32;20348;-59
2023/12/12 02:01:09;;;;;;;0.27;0.27;;;;;;;7.66;100.00;94955.44;4332899;32;20345;-59
2023/12/12 02:03:36;;;;;;;1.33;0.27;;;;;;;7.63;100.00;94951.50;4316535;32;20421;-59
2023/12/12 02:06:05;;;;;;;1.70;0.60;;;;;;;7.76;100.00;94957.94;4350889;32;20203;-59
2023/12/12 02:08:32;;;;;;;0.10;0.10;;;;;;;7.77;100.00;94962.13;4383778;32;20338;-59
2023/12/12 02:10:57;;;;;;;0.10;0.10;;;;;;;7.77;100.00;94959.50;4318083;32;20294;-59
2023/12/12 02:13:22;;;;;;;0.00;0.00;;;;;;;7.72;100.00;94949.78;4288407;32;20302;-59
2023/12/12 02:15:48;;;;;;;0.47;0.13;;;;;;;7.73;100.00;94947.94;4336930;32;20197;-59
2023/12/12 02:18:19;;;;;;;0.50;0.20;;;;;;;7.84;100.00;94954.66;4349192;32;20254;-59
2023/12/12 02:20:44;;;;;;;1.53;0.20;;;;;;;8.01;100.00;94949.66;4346848;32;20223;-59
2023/12/12 02:23:10;;;;;;;0.30;0.30;;;;;;;8.02;100.00;94953.09;4359561;32;20297;-59
2023/12/12 02:25:37;;;;;;;0.20;0.20;;;;;;;7.96;100.00;94955.00;4352025;32;20196;-59
2023/12/12 02:28:03;;;;;;;0.23;0.23;;;;;;;7.94;100.00;94941.31;4357414;32;20212;-59
2023/12/12 02:30:31;;;;;;;0.60;0.40;;;;;;;8.00;100.00;94939.37;4351991;32;20298;-59
2023/12/12 02:32:58;;;;;;;0.00;0.00;;;;;;;7.96;100.00;94938.38;4366475;32;20382;-59
2023/12/12 02:35:25;;;;;;;0.40;0.27;;;;;;;7.96;100.00;94923.31;4366781;32;20285;-59
2023/12/12 02:37:50;;;;;;;0.27;0.27;;;;;;;7.95;100.00;94927.03;4346128;32;20326;-59
2023/12/12 02:40:16;;;;;;;3.23;0.67;;;;;;;7.90;100.00;94917.31;4341656;32;20297;-59
2023/12/12 02:42:45;;;;;;;0.33;0.33;;;;;;;7.94;100.00;94915.69;4362487;32;20240;-59
2023/12/12 02:45:11;;;;;;;0.17;0.17;;;;;;;8.01;100.00;94915.34;4347617;32;20201;-59
2023/12/12 02:47:37;;;;;;;0.40;0.40;;;;;;;8.07;100.00;94930.03;4354740;32;20292;-59
2023/12/12 02:50:04;;;;;;;0.87;0.30;;;;;;;8.01;100.00;94936.47;4365348;32;20203;-59
2023/12/12 02:52:29;;;;;;;0.37;0.30;;;;;;;7.96;100.00;94939.16;4372396;32;20216;-59
2023/12/12 02:54:56;;;;;;;1.83;0.20;;;;;;;7.97;100.00;94939.94;4330560;32;20312;-59
2023/12/12 02:57:22;;;;;;;0.10;0.10;;;;;;;8.10;100.00;94932.13;4352895;32;20204;-59
2023/12/12 02:59:49;;;;;;;1.27;0.33;;;;;;;8.03;100.00;94928.25;4360708;32;20319;-59
2023/12/12 03:02:16;;;;;;;0.13;0.13;;;;;;;8.13;100.00;94931.50;4345880;32;20320;-59
2023/12/12 03:04:45;;;;;;;0.10;0.10;;;;;;;8.11;100.00;94928.38;4327017;32;20387;-59
2023/12/12 03:07:11;;;;;;;0.40;0.40;;;;;;;7.97;100.00;94939.94;4339874;32;20302;-59
2023/12/12 03:09:36;;;;;;;0.20;0.20;;;;;;;7.97;100.00;94937.31;4329569;32;20290;-59
2023/12/12 03:12:02;;;;;;;0.40;0.40;;;;;;;7.89;100.00;94933.47;4349257;32;20299;-59
2023/12/12 03:14:29;;;;;;;0.47;0.40;;;;;;;7.87;100.00;94930.34;4322206;32;20255;-59
2023/12/12 03:16:58;;;;;;;0.20;0.20;;;;;;;7.91;100.00;94928.66;4355402;32;20193;-59
2023/12/12 03:19:26;;;;;;;0.40;0.40;;;;;;;8.02;100.00;94927.47;4348312;32;20294;-59
2023/12/12 03:21:53;;;;;;;0.10;0.10;;;;;;;7.94;100.00;94925.47;4354117;32;20292;-59
2023/12/12 03:24:19;;;;;;;1.30;0.60;;;;;;;8.00;100.00;94924.31;4357123;32;20301;-59
2023/12/12 03:26:44;;;;;;;1.03;0.63;;;;;;;8.11;100.00;94920.44;4328210;32;20360;-59
2023/12/12 03:29:12;;;;;;;0.10;0.10;;;;;;;8.09;100.00;94917.34;4331506;32;20188;-59
2023/12/12 03:31:40;;;;;;;0.50;0.50;;;;;;;8.08;100.00;94920.25;4357802;32;20185;-59
2023/12/12 03:34:07;;;;;;;3.80;0.30;;;;;;;8.13;100.00;94918.31;4311385;32;20375;-59
2023/12/12 03:36:35;;;;;;;0.23;0.23;;;;;;;8.05;100.00;94926.91;4351975;32;20402;-62
2023/12/12 03:39:02;;;;;;;1.70;0.47;;;;;;;8.05;100.00;94921.62;4345625;32;20204;-60
2023/12/12 03:41:28;;;;;;;0.27;0.20;;;;;;;8.09;100.00;94925.25;4363384;32;20292;-59
2023/12/12 03:43:55;;;;;;;0.53;0.40;;;;;;;8.01;100.00;94935.69;4354276;32;20247;-59
2023/12/12 03:46:22;;;;;;;0.07;0.07;;;;;;;8.10;100.00;94926.84;4357903;32;20327;-59
2023/12/12 03:48:47;;;;;;;0.10;0.10;;;;;;;8.17;100.00;94926.44;4353104;32;20289;-59
2023/12/12 03:51:13;;;;;;;0.30;0.30;;;;;;;8.13;100.00;94922.81;4359200;32;20280;-59
2023/12/12 03:53:39;;;;;;;0.00;0.00;;;;;;;8.23;100.00;94918.16;4325978;32;20205;-59
2023/12/12 03:56:08;;;;;;;0.17;0.17;;;;;;;8.20;100.00;94923.25;4348065;32;22841;-59
2023/12/12 03:58:36;;;;;;;0.67;0.40;;;;;;;8.16;100.00;94917.75;4359465;32;20195;-59
2023/12/12 04:01:03;;;;;;;0.37;0.37;;;;;;;8.13;100.00;94905.09;4342100;32;20354;-60
2023/12/12 04:03:32;;;;;;;0.93;0.30;;;;;;;8.18;100.00;94926.16;4360537;32;20358;-59
2023/12/12 04:05:57;;;;;;;0.17;0.17;;;;;;;8.22;100.00;94921.09;4335094;32;20349;-59
2023/12/12 04:08:22;;;;;;;0.40;0.37;;;;;;;8.22;100.00;94913.94;4350412;32;20295;-59
2023/12/12 04:10:49;;;;;;;0.00;0.00;;;;;;;8.18;100.00;94915.59;4352298;32;20223;-60
2023/12/12 04:13:14;;;;;;;0.10;0.10;;;;;;;8.13;100.00;94913.03;4356148;32;20260;-59
2023/12/12 04:15:41;;;;;;;0.10;0.10;;;;;;;8.09;100.00;94906.78;4360104;32;20292;-59
2023/12/12 04:18:07;;;;;;;0.10;0.10;;;;;;;7.96;100.00;94910.13;4364465;32;20291;-60
2023/12/12 04:20:34;;;;;;;0.30;0.30;;;;;;;8.06;100.00;94896.78;4343102;32;20292;-60
2023/12/12 04:23:00;;;;;;;0.10;0.10;;;;;;;8.12;100.00;94900.88;4356984;32;20289;-59
2023/12/12 04:25:25;;;;;;;0.20;0.20;;;;;;;8.15;100.00;94900.31;4325470;32;20217;-59
2023/12/12 04:27:51;;;;;;;0.20;0.20;;;;;;;8.15;100.00;94899.53;4342516;32;20348;-59
2023/12/12 04:30:21;;;;;;;0.20;0.20;;;;;;;8.24;100.00;94908.38;4360307;32;20252;-59
2023/12/12 04:32:47;;;;;;;0.60;0.60;;;;;;;8.21;100.00;94898.38;4357624;32;20197;-59
2023/12/12 04:35:14;;;;;;;0.20;0.20;;;;;;;8.14;100.00;94893.47;4341346;32;20320;-60
2023/12/12 04:37:39;;;;;;;0.30;0.30;;;;;;;8.31;100.00;94900.09;4329686;32;20319;-59
2023/12/12 04:40:05;;;;;;;0.23;0.23;;;;;;;8.29;100.00;94905.66;4366463;32;20384;-59
2023/12/12 04:42:30;;;;;;;0.10;0.10;;;;;;;8.32;100.00;94914.84;4330384;32;20279;-59
2023/12/12 04:44:57;;;;;;;0.23;0.10;;;;;;;8.39;100.00;94907.38;4346203;32;20222;-59
2023/12/12 04:47:23;;;;;;;3.90;1.27;;;;;;;8.32;100.00;94912.22;4348557;32;20196;-59
2023/12/12 04:49:48;;;;;;;0.83;0.50;;;;;;;8.44;100.00;94897.50;4319787;32;20197;-60
2023/12/12 04:52:15;;;;;;;0.10;0.10;;;;;;;8.40;100.00;94901.81;4361604;32;20258;-59
2023/12/12 04:54:43;;;;;;;0.27;0.27;;;;;;;8.43;100.00;94905.72;4324657;32;20258;-59
2023/12/12 04:57:08;;;;;;;0.40;0.40;;;;;;;8.47;100.00;94904.09;4318514;32;20239;-59
2023/12/12 04:59:34;;;;;;;0.10;0.10;;;;;;;8.39;100.00;94905.53;4364997;32;20289;-59
2023/12/12 05:02:01;;;;;;;3.40;0.37;;;;;;;8.34;100.00;94907.44;4347322;32;20206;-59
2023/12/12 05:04:26;;;;;;;0.10;0.10;;;;;;;8.40;100.00;94899.16;4329076;32;20313;-59
2023/12/12 05:06:51;;;;;;;0.20;0.20;;;;;;;8.33;100.00;94905.88;4337769;32;20208;-59
2023/12/12 05:09:17;;;;;;;0.10;0.10;;;;;;;8.27;100.00;94903.31;4324402;32;20231;-59
2023/12/12 05:11:42;;;;;;;0.20;0.20;;;;;;;8.39;100.00;94910.81;4343145;32;20209;-59
2023/12/12 05:14:10;;;;;;;0.07;0.07;;;;;;;8.41;100.00;94903.38;4331507;32;20204;-59
2023/12/12 05:16:36;;;;;;;0.00;0.00;;;;;;;8.34;100.00;94902.94;4336613;32;20283;-60
2023/12/12 05:19:02;;;;;;;1.20;0.40;;;;;;;8.37;100.00;94898.94;4351807;32;20261;-60
2023/12/12 05:21:30;;;;;;;0.10;0.10;;;;;;;8.31;100.00;94894.81;4369667;32;20262;-59
2023/12/12 05:23:56;;;;;;;0.10;0.10;;;;;;;8.34;100.00;94892.38;4350431;32;20215;-59
2023/12/12 05:26:22;;;;;;;0.43;0.43;;;;;;;8.24;100.00;94892.53;4373740;32;20257;-59
2023/12/12 05:28:47;;;;;;;0.83;0.50;;;;;;;8.21;100.00;94890.47;4322385;32;20201;-59
2023/12/12 05:31:14;;;;;;;0.10;0.10;;;;;;;8.01;100.00;94886.28;4346929;32;20214;-59
2023/12/12 05:33:40;;;;;;;0.10;0.10;;;;;;;7.99;100.00;94885.78;4371847;32;20193;-59
2023/12/12 05:36:09;;;;;;;0.10;0.10;;;;;;;8.04;100.00;94882.28;4353243;32;20350;-59
2023/12/12 05:38:34;;;;;;;0.20;0.20;;;;;;;7.94;100.00;94886.63;4329646;32;20190;-60
2023/12/12 05:41:02;;;;;;;3.60;0.63;;;;;;;8.02;100.00;94889.69;4343657;32;20311;-59
2023/12/12 05:43:28;;;;;;;0.13;0.13;;;;;;;7.90;100.00;94893.56;4339405;32;20220;-59
2023/12/12 05:45:55;;;;;;;0.53;0.37;;;;;;;7.99;100.00;94896.34;4354574;32;20280;-59
2023/12/12 05:48:21;;;;;;;0.23;0.23;;;;;;;7.93;100.00;94892.97;4338649;32;20347;-59
2023/12/12 05:50:48;;;;;;;0.43;0.40;;;;;;;7.94;100.00;94893.78;4342205;32;20292;-59
2023/12/12 05:53:15;;;;;;;2.03;0.20;;;;;;;8.02;100.00;94901.06;4360971;32;20197;-59
2023/12/12 05:55:43;;;;;;;0.10;0.10;;;;;;;8.15;100.00;94886.31;4336738;32;20305;-59
2023/12/12 05:58:12;;;;;;;0.23;0.23;;;;;;;8.03;100.00;94892.06;4347672;32;20281;-59
2023/12/12 06:00:39;;;;;;;0.20;0.20;;;;;;;8.08;100.00;94886.72;4353872;32;20403;-59
2023/12/12 06:03:06;;;;;;;0.47;0.30;;;;;;;8.04;100.00;94883.06;4367750;32;20368;-59
2023/12/12 06:05:31;;;;;;;0.43;0.43;;;;;;;8.11;100.00;94878.19;4366788;32;20289;-59
2023/12/12 06:07:58;;;;;;;0.07;0.07;;;;;;;8.23;100.00;94883.03;4363238;32;20325;-59
2023/12/12 06:10:25;;;;;;;0.10;0.10;;;;;;;7.95;100.00;94879.50;4348440;32;20264;-59
2023/12/12 06:12:51;;;;;;;0.30;0.30;;;;;;;7.96;100.00;94875.78;4353675;32;20349;-59
2023/12/12 06:15:19;;;;;;;0.37;0.37;;;;;;;7.99;100.00;94880.50;4354118;32;20363;-59
2023/12/12 06:17:45;;;;;;;0.10;0.10;;;;;;;7.92;100.00;94872.13;4331834;32;20305;-59
2023/12/12 06:20:11;;;;;;;0.63;0.63;;;;;;;7.96;100.00;94875.00;4358606;32;20288;-59
2023/12/12 06:22:38;;;;;;;0.10;0.10;;;;;;;7.89;100.00;94875.38;4349228;32;20325;-59
2023/12/12 06:25:06;;;;;;;0.10;0.10;;;;;;;7.89;100.00;94870.09;4332444;32;20247;-59
2023/12/12 06:27:34;;;;;;;0.37;0.37;;;;;;;7.81;100.00;94873.38;4327014;32;20292;-61
2023/12/12 06:30:04;;;;;;;0.20;0.20;;;;;;;7.83;100.00;94877.31;4327944;32;20337;-59
2023/12/12 06:32:30;;;;;;;0.30;0.30;;;;;;;7.76;100.00;94870.81;4328186;32;20381;-59
2023/12/12 06:34:57;;;;;;;0.27;0.27;;;;;;;7.77;100.00;94867.09;4331507;32;20288;-59
2023/12/12 06:37:22;;;;;;;0.23;0.23;;;;;;;7.74;100.00;94865.03;4302321;32;20290;-59
2023/12/12 06:39:47;;;;;;;0.60;0.60;;;;;;;7.82;100.00;94864.37;4322189;32;20297;-59
2023/12/12 06:42:13;;;;;;;0.53;0.50;;;;;;;7.69;100.00;94862.47;4321493;32;20223;-59
2023/12/12 06:44:39;;;;;;;0.13;0.13;;;;;;;7.58;100.00;94865.25;4313373;32;20442;-59
2023/12/12 06:47:06;;;;;;;0.50;0.50;;;;;;;7.64;100.00;94862.53;4325326;32;20201;-59
2023/12/12 06:49:33;;;;;;;0.10;0.10;;;;;;;7.78;100.00;94858.09;4330597;32;20304;-60
2023/12/12 06:52:01;;;;;;;0.70;0.70;;;;;;;7.74;100.00;94851.81;4358642;32;20379;-59
2023/12/12 06:54:26;;;;;;;0.70;0.33;;;;;;;7.62;100.00;94848.84;4364448;32;20308;-59
2023/12/12 06:56:55;;;;;;;0.30;0.30;;;;;;;7.67;100.00;94843.50;4313908;32;20310;-59
2023/12/12 06:59:21;;;;;;;0.77;0.40;;;;;;;7.39;100.00;94845.97;4313526;32;20189;-59
2023/12/12 07:01:47;;;;;;;0.10;0.10;;;;;;;7.47;100.00;94842.72;4327779;32;20285;-60
2023/12/12 07:04:13;;;;;;;0.03;0.03;;;;;;;7.24;100.00;94846.19;4356629;32;20373;-59
2023/12/12 07:06:39;;;;;;;0.43;0.23;;;;;;;7.40;100.00;94852.81;4342008;32;20209;-59
2023/12/12 07:09:05;;;;;;;0.27;0.27;;;;;;;7.47;100.00;94850.63;4364107;32;20489;-59
2023/12/12 07:11:31;;;;;;;0.30;0.17;;;;;;;7.29;100.00;94855.87;4339402;32;20284;-59
2023/12/12 07:13:57;;;;;;;14.73;1.83;;;;;;;7.47;100.00;94857.75;4330018;32;20308;-61
2023/12/12 07:16:24;;;;;;;1.87;1.23;;;;;;;10.16;100.00;94848.25;4338317;32;20192;-60
2023/12/12 07:18:50;;;;;;;4.27;1.17;;;;;;;11.26;100.00;94844.84;4321811;32;20218;-61
2023/12/12 07:21:16;;;;;;;5.90;0.97;;;;;;;12.38;100.00;94842.28;4330026;32;20201;-61
2023/12/12 07:23:42;;;;;;;0.40;0.40;;;;;;;13.23;100.00;94845.75;4294546;32;20241;-60
2023/12/12 07:26:09;;;;;;;0.53;0.53;;;;;;;14.25;92.21;94848.03;4356275;32;20260;-60
2023/12/12 07:28:36;;;;;;;0.63;0.20;;;;;;;14.08;89.62;94858.84;4329386;32;20193;-61
2023/12/12 07:31:02;;;;;;;0.10;0.10;;;;;;;14.56;87.21;94863.59;4305012;32;20221;-60
2023/12/12 07:33:27;;;;;;;0.30;0.30;;;;;;;14.04;82.64;94850.72;4337585;32;20196;-60
2023/12/12 07:35:53;;;;;;;2.10;0.60;;;;;;;12.44;80.74;94856.19;4343326;32;20254;-60
2023/12/12 07:38:23;;;;;;;0.43;0.43;;;;;;;10.84;86.39;94841.75;4300707;32;20209;-60
2023/12/12 07:40:48;;;;;;;0.30;0.30;;;;;;;9.63;93.21;94840.97;4317792;32;20214;-59
2023/12/12 07:43:15;;;;;;;0.27;0.27;;;;;;;8.98;97.94;94847.63;4351159;32;20232;-60
2023/12/12 07:45:40;;;;;;;0.33;0.33;;;;;;;8.43;100.00;94843.09;4340384;32;20240;-59
2023/12/12 07:48:07;;;;;;;0.50;0.10;;;;;;;7.84;100.00;94841.13;4336467;32;20190;-60
2023/12/12 07:50:32;;;;;;;1.07;0.50;;;;;;;7.17;100.00;94835.19;4328974;32;20222;-60
2023/12/12 07:52:58;;;;;;;0.53;0.27;;;;;;;7.75;100.00;94830.41;4371155;32;20189;-60
2023/12/12 07:55:25;;;;;;;0.40;0.40;;;;;;;7.64;100.00;94826.37;4367573;32;20200;-60
2023/12/12 07:57:51;;;;;;;0.43;0.43;;;;;;;7.39;100.00;94830.16;4357285;32;20201;-60
2023/12/12 08:00:17;;;;;;;0.20;0.20;;;;;;;6.96;100.00;94823.31;4350867;32;20281;-60
2023/12/12 08:02:46;;;;;;;0.23;0.23;;;;;;;6.86;100.00;94816.31;4371566;32;20260;-60
2023/12/12 08:05:11;;;;;;;0.40;0.40;;;;;;;7.04;100.00;94826.13;4338524;32;20196;-60
2023/12/12 08:07:37;;;;;;;0.13;0.13;;;;;;;7.32;100.00;94827.06;4341139;32;20342;-60
2023/12/12 08:10:04;;;;;;;0.27;0.27;;;;;;;7.23;100.00;94829.56;4344376;32;20218;-60
2023/12/12 08:12:29;;;;;;;0.20;0.20;;;;;;;7.03;100.00;94837.75;4337483;32;20336;-60
2023/12/12 08:14:55;;;;;;;0.30;0.30;;;;;;;7.11;100.00;94826.53;4370392;32;20329;-60
2023/12/12 08:17:21;;;;;;;0.43;0.43;;;;;;;7.28;100.00;94828.69;4345817;32;20255;-60
2023/12/12 08:19:46;;;;;;;0.33;0.30;;;;;;;7.39;100.00;94832.00;4307922;32;20197;-59
2023/12/12 08:22:15;;;;;;;0.20;0.20;;;;;;;7.50;100.00;94831.56;4329316;32;20209;-60
2023/12/12 08:24:43;;;;;;;0.73;0.70;;;;;;;7.30;100.00;94836.34;4342657;32;20215;-60
2023/12/12 08:27:11;;;;;;;0.43;0.43;;;;;;;7.35;100.00;94838.91;4352673;32;20285;-60
2023/12/12 08:29:37;;;;;;;0.23;0.23;;;;;;;7.53;100.00;94833.63;4370969;32;20284;-60
2023/12/12 08:32:03;;;;;;;0.60;0.60;;;;;;;7.31;100.00;94838.69;4361004;32;20300;-60
2023/12/12 08:34:33;;;;;;;0.83;0.83;;;;;;;7.24;100.00;94843.56;4334789;32;20292;-60
2023/12/12 08:37:01;;;;;;;0.33;0.33;;;;;;;7.23;100.00;94839.34;4369735;32;20248;-60
2023/12/12 08:39:28;;;;;;;0.40;0.40;;;;;;;7.26;100.00;94838.78;4358553;32;20351;-60
2023/12/12 08:41:54;;;;;;;0.53;0.47;;;;;;;7.31;100.00;94840.53;4362171;32;20305;-60
2023/12/12 08:44:24;;;;;;;0.30;0.30;;;;;;;7.32;100.00;94842.13;4358002;32;20297;-60
2023/12/12 08:46:50;;;;;;;0.70;0.70;;;;;;;7.53;100.00;94846.03;4342487;32;20232;-60
2023/12/12 08:49:19;;;;;;;0.43;0.30;;;;;;;7.51;100.00;94845.53;4369423;32;20329;-59
2023/12/12 08:51:45;;;;;;;0.03;0.03;;;;;;;7.57;100.00;94832.00;4343376;32;20300;-60
2023/12/12 08:54:10;;;;;;;0.40;0.40;;;;;;;7.45;100.00;94833.50;4364388;32;20289;-60
2023/12/12 08:56:36;;;;;;;0.20;0.20;;;;;;;7.64;100.00;94830.88;4363202;32;20244;-60
2023/12/12 08:59:03;;;;;;;0.23;0.23;;;;;;;7.84;100.00;94833.19;4347567;32;20232;-60
2023/12/12 09:01:28;;;;;;;0.70;0.70;;;;;;;7.55;100.00;94839.41;4365549;32;20299;-60
2023/12/12 09:03:56;;;;;;;0.47;0.47;;;;;;;7.81;100.00;94839.06;4354953;32;20348;-60
2023/12/12 09:06:22;;;;;;;1.20;1.03;;;;;;;7.91;100.00;94847.59;4368948;32;20185;-60
2023/12/12 09:08:49;;;;;;;1.27;0.77;;;;;;;7.83;100.00;94839.56;4335466;32;20315;-59
2023/12/12 09:11:15;;;;;;;0.63;0.53;;;;;;;7.80;100.00;94829.56;4316542;32;20332;-58
2023/12/12 09:13:41;;;;;;;0.50;0.50;;;;;;;7.94;100.00;94819.81;4385937;32;20304;-60
2023/12/12 09:16:08;;;;;;;0.63;0.63;;;;;;;8.14;100.00;94818.69;4366444;32;20193;-60
2023/12/12 09:18:33;;;;;;;0.40;0.40;;;;;;;7.92;100.00;94821.97;4336007;32;20312;-60
2023/12/12 09:21:01;;;;;;;0.30;0.30;;;;;;;7.90;100.00;94826.75;4355380;32;20277;-60
2023/12/12 09:23:31;;;;;;;0.57;0.33;;;;;;;7.95;100.00;94816.09;4358424;32;20196;-59
2023/12/12 09:25:58;;;;;;;0.20;0.20;;;;;;;7.83;100.00;94813.16;4363619;32;20304;-62
2023/12/12 09:28:24;;;;;;;3.33;0.70;;;;;;;7.88;100.00;94810.44;4330838;32;20297;-60
2023/12/12 09:30:49;;;;;;;0.50;0.50;;;;;;;7.50;100.00;94810.44;4337994;32;20355;-60
2023/12/12 09:33:15;;;;;;;0.53;0.53;;;;;;;7.90;100.00;94805.63;4324566;32;20211;-60
2023/12/12 09:35:41;;;;;;;0.30;0.30;;;;;;;8.28;100.00;94803.69;4339174;32;20237;-59
2023/12/12 09:38:07;;;;;;;0.50;0.50;;;;;;;7.94;100.00;94794.19;4353351;32;20400;-59
2023/12/12 09:40:36;;;;;;;0.30;0.30;;;;;;;7.86;100.00;94797.50;4347762;32;20306;-60
2023/12/12 09:43:03;;;;;;;0.47;0.47;;;;;;;7.72;100.00;94790.59;4357262;32;20355;-60
2023/12/12 09:45:31;;;;;;;0.50;0.50;;;;;;;7.56;100.00;94788.19;4362306;32;20338;-60
2023/12/12 09:47:59;;;;;;;0.23;0.23;;;;;;;7.51;100.00;94780.34;4358870;32;20414;-60
2023/12/12 09:50:25;;;;;;;0.20;0.20;;;;;;;7.64;100.00;94778.06;4325518;32;20297;-59
2023/12/12 09:52:52;;;;;;;0.40;0.40;;;;;;;7.87;100.00;94769.25;4309658;32;20301;-60
2023/12/12 09:55:25;;;;;;;0.47;0.47;;;;;;;7.88;100.00;94765.53;4340922;32;20313;-60
2023/12/12 09:57:51;;;;;;;0.60;0.60;;;;;;;8.27;100.00;94750.06;4345795;32;20312;-60
2023/12/12 10:00:21;;;;;;;0.23;0.23;;;;;;;8.68;99.68;94737.94;4328150;32;20282;-60
2023/12/12 10:02:47;;;;;;;0.40;0.40;;;;;;;8.68;98.92;94733.44;4338575;32;20324;-60
2023/12/12 10:05:15;;;;;;;2.80;0.90;;;;;;;8.37;100.00;94722.66;4348292;32;20208;-60
2023/12/12 10:07:42;;;;;;;0.80;0.80;;;;;;;8.41;100.00;94728.16;4355310;32;20232;-60
2023/12/12 10:10:12;;;;;;;0.13;0.13;;;;;;;8.37;100.00;94727.97;4374510;32;20267;-60
2023/12/12 10:12:38;;;;;;;0.47;0.47;;;;;;;8.53;100.00;94712.56;4373567;32;20189;-60
2023/12/12 10:15:20;;;;;;;0.43;0.43;;;;;;;8.71;99.31;94706.41;4354999;32;20252;-60
2023/12/12 10:17:47;;;;;;;2.57;0.47;;;;;;;8.89;98.41;94702.06;4335383;32;20253;-60
2023/12/12 10:20:12;;;;;;;0.93;0.33;;;;;;;9.21;97.21;94709.03;4367470;32;20205;-60
2023/12/12 10:22:38;;;;;;;0.17;0.17;;;;;;;9.30;96.82;94708.03;4365824;32;20200;-60
2023/12/12 10:25:15;;;;;;;0.10;0.10;;;;;;;9.12;97.49;94702.88;4342907;32;20223;-60
2023/12/12 10:27:42;;;;;;;0.23;0.23;;;;;;;9.37;96.04;94701.50;4322148;32;20268;-60
2023/12/12 10:30:12;;;;;;;0.63;0.30;;;;;;;9.56;95.41;94710.84;4342068;32;20319;-60
2023/12/12 10:32:39;;;;;;;0.40;0.40;;;;;;;9.70;94.54;94700.19;4355893;32;20205;-60
2023/12/12 10:35:06;;;;;;;0.20;0.20;;;;;;;9.73;95.15;94696.16;4336584;32;20208;-60
2023/12/12 10:37:33;;;;;;;0.33;0.33;;;;;;;9.58;95.33;94682.19;4342454;32;20200;-60
2023/12/12 10:40:22;;;;;;;0.00;0.00;;;;;;;9.29;97.22;94679.19;4365541;32;20215;-60
2023/12/12 10:42:50;;;;;;;0.30;0.30;;;;;;;9.40;97.50;94674.44;4353386;32;20209;-60
2023/12/12 10:45:17;;;;;;;0.10;0.10;;;;;;;9.23;97.56;94672.47;4332766;32;20201;-60
2023/12/12 10:47:53;;;;;;;0.30;0.30;;;;;;;9.57;96.44;94685.12;4349235;32;20197;-60
2023/12/12 10:50:20;;;;;;;0.63;0.53;;;;;;;9.82;95.45;94681.06;4342561;32;20256;-60
2023/12/12 10:52:48;;;;;;;0.37;0.30;;;;;;;9.90;95.26;94683.78;4322616;32;20227;-58
2023/12/12 10:55:19;;;;;;;0.30;0.30;;;;;;;10.08;93.97;94689.94;4327821;32;20201;-60
2023/12/12 10:57:47;;;;;;;0.50;0.40;;;;;;;10.00;94.41;94677.44;4361152;32;20220;-58
2023/12/12 11:00:14;;;;;;;0.57;0.43;;;;;;;10.03;94.34;94674.16;4372221;32;20249;-60
2023/12/12 11:02:43;;;;;;;0.10;0.10;;;;;;;10.20;94.12;94661.00;4342663;32;20201;-60
2023/12/12 11:05:13;;;;;;;0.20;0.20;;;;;;;10.03;94.65;94650.31;4330962;32;20201;-60
2023/12/12 11:07:46;;;;;;;0.30;0.27;;;;;;;10.19;94.57;94675.34;4322670;32;20204;-60
2023/12/12 11:10:15;;;;;;;10.13;6.83;;;;;;;10.09;95.63;94683.56;4345894;32;20287;-60
2023/12/12 11:12:50;;;;;;;0.40;0.40;;;;;;;9.68;97.83;94685.69;4345866;32;20315;-60
2023/12/12 11:15:19;;;;;;;0.60;0.60;;;;;;;9.98;97.06;94683.03;4317620;32;20259;-60
2023/12/12 11:17:50;;;;;;;0.87;0.20;;;;;;;9.74;98.78;94672.03;4381222;32;20252;-60
2023/12/12 11:20:17;;;;;;;0.20;0.20;;;;;;;9.64;99.97;94665.09;4344747;32;20223;-60
2023/12/12 11:22:48;;;;;;;0.23;0.23;;;;;;;9.42;100.00;94673.06;4342177;32;20231;-60
2023/12/12 11:25:19;;;;;;;0.30;0.30;;;;;;;9.37;100.00;94665.22;4309384;32;20244;-60
2023/12/12 11:27:48;;;;;;;0.20;0.20;;;;;;;9.45;100.00;94669.81;4359380;32;20215;-60
2023/12/12 11:30:19;;;;;;;0.30;0.30;;;;;;;9.59;100.00;94669.72;4342563;32;20233;-59
2023/12/12 11:32:45;;;;;;;1.03;0.20;;;;;;;9.46;100.00;94666.09;4339721;32;20201;-60